Chanute Martin Johnson Airport
KCNU : now visible

Airfield :











YOU CAN JOIN US ON...

 
LOGIN :

Register | Disclaimer

   EN    FR    IT 

 









Legend :    VFR   Marginal VFR   IFR   Intensive IFR   Very Intensive IFR
Visi :
Ceiling :
>= 8 km
>= 3000ft
5 to 8 km
1000 to 3000 ft
1500m to 5 km
500 to 1000 ft
800 to 1500m
200 to 500 ft
< 800m
< 200 ft
Symbols :   Thunderstorms  Fog  Heavy snow  Heavy precipitations  Wind > 20 kt






- Airport Elevation : 1002 ft


KCNU - Chanute Martin Johnson

CURRENT METAR :
  • 162152Z AUTO 06011G18KT 10SM CLR 31/21 A2992 RMK AO2 SLP118 T03110206

EXPIRED METARs :
  • 162052Z AUTO 05010KT 10SM CLR 33/20 A2992 RMK AO2 LTG DSNT E SLP116 T03330200 58010
  • 161952Z AUTO 08008KT 10SM FEW042 33/21 A2993 RMK AO2 SLP121 T03280206

TAF KCNU
Valid from the 16 at 22:00 until the 17 at 18:00 UTC


162223Z 1622/1718 06011G20KT P6SM VCSH SCT100
FM170000 05014KT P6SM BKN026
FM170300 05012KT P6SM OVC012
FM170700 04009KT 5SM -SHRA BR OVC007
FM171700 06010KT P6SM BKN015
KZKC FIR / North America



MET'MAP, your aeronautical weather chart ! - Copyright ORBIFLY December 2007 - Disclaimer

ORBIFLY MET'MAP TEAM :

Programming & Development : Alexandra Zaïnal
Original concept : Baudouin d'Aumeries
Technical & hardware support : Manuel Goepfert
Assistance : Marc-Olivier Méhu




SOURCES & CREDITS :

   NOAA       Earth
Advisory